Time;durP1;ratioP1;P1;durP2;ratioP2;P2;SDS_P1;SDS_P2;PMS_P1;PMS_P2;Temp;Humidity;BMP_temperature;BMP_pressure;BME280_temperature;BME280_humidity;BME280_pressure;Samples;Min_cycle;Max_cycle;Signal;HPM_P1;HPM_P2
2023/08/27 12:01:48;;;;;;;;;2.00;2.00;;;;;22.17;45.70;100906.44;5066043;27;45445;-82
2023/08/27 12:04:14;;;;;;;;;2.00;1.67;;;;;22.30;45.92;100909.63;5060386;28;45583;-76
2023/08/27 12:06:54;;;;;;;;;3.00;1.33;;;;;22.50;44.60;100909.44;5057126;28;45736;-82
2023/08/27 12:09:28;;;;;;;;;1.00;1.00;;;;;22.70;44.06;100918.22;5048730;28;47109;-81
2023/08/27 12:11:54;;;;;;;;;1.33;1.00;;;;;22.92;43.51;100902.44;5052211;27;46168;-86
2023/08/27 12:14:24;;;;;;;;;0.00;0.00;;;;;23.12;43.07;100921.16;5051442;28;46629;-75
2023/08/27 12:16:51;;;;;;;;;2.33;1.00;;;;;23.33;43.02;100917.25;5063540;27;45603;-75
2023/08/27 12:19:19;;;;;;;;;1.00;1.00;;;;;23.54;42.68;100922.22;5055862;28;45470;-77
2023/08/27 12:21:56;;;;;;;;;1.00;1.00;;;;;23.78;42.35;100916.00;5062979;28;46067;-76
2023/08/27 12:24:41;;;;;;;;;1.00;1.00;;;;;23.97;42.04;100929.41;5051552;28;45512;-78
2023/08/27 12:27:14;;;;;;;;;1.00;1.00;;;;;24.17;41.54;100922.72;5060540;28;45776;-77
2023/08/27 12:29:44;;;;;;;;;1.00;1.00;;;;;24.34;40.93;100925.41;5055699;27;45348;-77
2023/08/27 12:32:14;;;;;;;;;0.67;0.67;;;;;24.50;40.80;100924.56;5046876;28;47460;-78
2023/08/27 12:34:43;;;;;;;;;1.00;1.00;;;;;24.65;40.19;100924.75;5048250;28;45690;-79
2023/08/27 12:37:10;;;;;;;;;0.67;0.67;;;;;24.78;39.88;100936.91;5048101;28;45583;-75
2023/08/27 12:39:41;;;;;;;;;0.33;0.33;;;;;24.89;39.44;100939.28;5059041;28;45368;-77
2023/08/27 12:42:07;;;;;;;;;1.67;1.67;;;;;25.00;39.64;100940.81;5057948;28;46213;-78
2023/08/27 12:44:33;;;;;;;;;0.00;0.00;;;;;25.10;39.47;100936.00;5061645;28;45553;-78
2023/08/27 12:46:59;;;;;;;;;0.00;0.00;;;;;25.23;39.55;100927.34;5056301;28;45526;-78
2023/08/27 12:49:24;;;;;;;;;1.00;1.00;;;;;25.33;39.22;100939.84;5055357;28;45352;-78
2023/08/27 12:51:50;;;;;;;;;1.00;1.00;;;;;25.41;39.53;100930.81;5058108;28;45864;-78
2023/08/27 12:54:17;;;;;;;;;0.00;0.00;;;;;25.48;38.64;100938.09;5053807;28;45454;-78
2023/08/27 12:56:43;;;;;;;;;0.00;0.00;;;;;25.57;39.37;100935.34;5061488;28;45352;-77
2023/08/27 12:59:10;;;;;;;;;1.00;1.00;;;;;25.64;38.80;100931.75;5057934;28;45501;-77
2023/08/27 13:01:35;;;;;;;;;1.00;1.00;;;;;25.73;39.02;100937.13;5044774;28;46988;-78
2023/08/27 13:04:01;;;;;;;;;1.00;1.00;;;;;25.81;39.29;100938.94;5049878;28;45498;-78
2023/08/27 13:06:28;;;;;;;;;1.33;1.33;;;;;25.87;38.09;100941.81;5057806;28;54006;-78
2023/08/27 13:08:54;;;;;;;;;0.00;0.00;;;;;25.92;38.63;100930.41;5063501;27;45523;-78
2023/08/27 13:11:19;;;;;;;;;1.00;1.00;;;;;25.98;40.42;100932.38;5052376;28;45478;-77
2023/08/27 13:13:44;;;;;;;;;1.00;1.00;;;;;26.04;40.52;100925.38;5048395;28;45473;-77
2023/08/27 13:16:10;;;;;;;;;0.00;0.00;;;;;26.11;40.36;100936.41;5048308;28;45606;-80
2023/08/27 13:18:35;;;;;;;;;1.00;1.00;;;;;26.15;40.28;100933.13;5049210;28;45476;-78
2023/08/27 13:21:00;;;;;;;;;2.00;2.00;;;;;26.22;41.20;100929.66;5051553;28;59088;-84
2023/08/27 13:23:26;;;;;;;;;3.00;2.00;;;;;26.28;41.42;100920.81;5046734;28;49087;-75
2023/08/27 13:25:52;;;;;;;;;2.33;2.33;;;;;26.34;40.79;100919.22;5047051;28;45395;-80
2023/08/27 13:28:17;;;;;;;;;2.00;2.00;;;;;26.40;41.65;100919.34;5038734;28;45607;-82
2023/08/27 13:30:42;;;;;;;;;1.00;1.00;;;;;26.45;40.09;100924.25;5040510;28;45364;-78
2023/08/27 13:33:08;;;;;;;;;0.33;0.33;;;;;26.45;39.50;100924.25;5034761;28;45724;-77
2023/08/27 13:35:33;;;;;;;;;0.00;0.00;;;;;26.45;39.15;100921.53;5032559;28;45558;-78
2023/08/27 13:37:59;;;;;;;;;0.67;0.67;;;;;26.44;38.84;100914.34;5037882;28;45483;-76
2023/08/27 13:40:25;;;;;;;;;2.00;2.00;;;;;26.45;38.70;100907.91;5040750;28;47068;-76
2023/08/27 13:42:50;;;;;;;;;0.00;0.00;;;;;26.46;39.08;100904.16;5036521;28;45689;-77
2023/08/27 13:45:16;;;;;;;;;0.67;0.67;;;;;26.47;38.84;100896.81;5036575;28;45405;-80
2023/08/27 13:47:41;;;;;;;;;1.00;1.00;;;;;26.48;37.54;100906.69;5045996;28;45602;-79
2023/08/27 13:50:07;;;;;;;;;0.00;0.00;;;;;26.50;37.88;100913.66;5034235;28;45545;-80
2023/08/27 13:52:32;;;;;;;;;0.00;0.00;;;;;26.48;38.10;100901.25;5033204;28;45557;-81
2023/08/27 13:54:57;;;;;;;;;0.00;0.00;;;;;26.52;38.43;100908.84;5043815;28;46374;-79
2023/08/27 13:57:23;;;;;;;;;0.33;0.33;;;;;26.56;37.62;100902.00;5043501;28;53565;-78
2023/08/27 13:59:48;;;;;;;;;0.00;0.00;;;;;26.56;37.62;100903.88;5038042;28;45831;-79
2023/08/27 14:02:13;;;;;;;;;1.67;0.33;;;;;26.57;37.19;100906.41;5049490;28;45450;-82
2023/08/27 14:04:39;;;;;;;;;1.33;1.33;;;;;26.56;36.63;100914.75;5073659;28;45398;-81
2023/08/27 14:07:04;;;;;;;;;0.00;0.00;;;;;26.52;36.68;100914.28;5071019;28;45388;-79
2023/08/27 14:09:31;;;;;;;;;1.00;0.33;;;;;26.54;36.95;100912.25;5071989;28;45715;-80
2023/08/27 14:11:56;;;;;;;;;1.00;1.00;;;;;26.53;37.14;100907.00;5072283;27;45494;-79
2023/08/27 14:14:22;;;;;;;;;0.67;0.67;;;;;26.50;36.94;100905.47;5073469;27;45739;-81
2023/08/27 14:16:47;;;;;;;;;3.00;0.00;;;;;26.53;37.92;100904.25;5067176;27;45395;-81
2023/08/27 14:19:12;;;;;;;;;0.33;0.33;;;;;26.53;37.50;100901.53;5072059;28;45410;-79
2023/08/27 14:21:38;;;;;;;;;1.67;0.00;;;;;26.52;37.04;100891.69;5061404;28;47071;-80
2023/08/27 14:24:03;;;;;;;;;1.00;0.33;;;;;26.54;37.30;100889.63;5053290;28;45524;-81
2023/08/27 14:26:28;;;;;;;;;0.00;0.00;;;;;26.52;37.71;100892.53;5067528;28;45524;-81
